Time;durP1;ratioP1;P1;durP2;ratioP2;P2;SDS_P1;SDS_P2;PMS_P1;PMS_P2;Temp;Humidity;BMP_temperature;BMP_pressure;BME280_temperature;BME280_humidity;BME280_pressure;Samples;Min_cycle;Max_cycle;Signal;HPM_P1;HPM_P2
2023/06/12 00:00:51;;;;;;;5.23;4.40;;;22.90;71.40;;;23.48;nan;100385.78;5005983;28;21245;-65
2023/06/12 00:03:20;;;;;;;5.67;4.53;;;22.80;71.80;;;23.40;nan;100383.31;4988387;28;20630;-65
2023/06/12 00:05:47;;;;;;;9.87;4.60;;;22.80;72.20;;;23.40;nan;100385.97;5006843;28;20654;-65
2023/06/12 00:08:17;;;;;;;6.47;4.60;;;22.80;72.20;;;23.37;nan;100389.84;5008256;28;20618;-64
2023/06/12 00:10:47;;;;;;;4.67;4.20;;;22.80;72.40;;;23.35;nan;100391.03;5015006;28;20652;-65
2023/06/12 00:13:14;;;;;;;6.47;5.20;;;22.70;72.60;;;23.36;nan;100390.84;5006338;28;20695;-66
2023/06/12 00:15:41;;;;;;;6.30;4.93;;;22.80;72.70;;;23.39;nan;100389.63;5007383;28;20610;-63
2023/06/12 00:18:08;;;;;;;6.20;5.30;;;22.80;72.90;;;23.40;nan;100383.31;4990009;28;20606;-64
2023/06/12 00:20:35;;;;;;;6.93;5.20;;;22.80;73.00;;;23.40;nan;100391.28;4993385;28;21091;-65
2023/06/12 00:23:02;;;;;;;6.47;5.37;;;22.80;73.30;;;23.41;nan;100398.22;4993149;28;20668;-65
2023/06/12 00:25:29;;;;;;;5.83;4.87;;;22.80;73.10;;;23.36;nan;100395.38;5004492;28;20634;-65
2023/06/12 00:27:56;;;;;;;6.40;4.57;;;22.80;73.60;;;23.34;nan;100400.06;4994293;28;20978;-65
2023/06/12 00:30:23;;;;;;;8.50;4.97;;;22.70;73.90;;;23.34;nan;100398.19;4995629;28;20672;-65
2023/06/12 00:32:50;;;;;;;5.70;5.00;;;22.70;74.20;;;23.34;nan;100394.75;5010670;28;20669;-65
2023/06/12 00:35:20;;;;;;;4.77;4.27;;;22.70;74.30;;;23.34;nan;100400.88;5010347;28;21051;-65
2023/06/12 00:37:49;;;;;;;5.80;4.73;;;22.70;73.90;;;23.35;nan;100394.53;5015330;28;20636;-65
2023/06/12 00:40:16;;;;;;;4.30;3.90;;;22.70;73.80;;;23.38;nan;100402.13;5021731;28;20684;-64
2023/06/12 00:42:47;;;;;;;5.60;3.87;;;22.80;74.60;;;23.33;nan;100398.41;4993397;28;20622;-65
2023/06/12 00:45:16;;;;;;;6.03;4.40;;;22.70;74.90;;;23.27;nan;100388.53;4992764;28;20977;-64
2023/06/12 00:47:52;;;;;;;6.67;4.53;;;22.70;74.80;;;23.29;nan;100397.97;5006794;28;20637;-65
2023/06/12 00:50:25;;;;;;;5.87;4.87;;;22.70;75.30;;;23.26;nan;100408.16;5004133;28;20660;-64
2023/06/12 00:52:55;;;;;;;4.40;4.00;;;22.70;75.60;;;23.19;nan;100397.50;5007118;28;20660;-65
2023/06/12 00:55:22;;;;;;;7.50;4.23;;;22.60;76.00;;;23.13;nan;100393.78;5020538;28;20652;-66
2023/06/12 00:57:51;;;;;;;4.20;3.80;;;22.60;76.20;;;23.10;nan;100401.34;5016331;28;21046;-64
2023/06/12 01:00:19;;;;;;;4.80;4.23;;;22.50;76.00;;;23.02;nan;100406.84;5021735;28;20666;-65
2023/06/12 01:02:56;;;;;;;4.93;4.00;;;22.40;76.00;;;22.95;nan;100406.78;5003654;28;20636;-65
2023/06/12 01:05:35;;;;;;;5.03;3.63;;;22.40;76.20;;;22.86;nan;100407.97;5012276;28;20616;-65
2023/06/12 01:08:31;;;;;;;4.77;3.77;;;22.30;76.20;;;22.73;nan;100410.53;5007453;28;20755;-65
2023/06/12 01:11:05;;;;;;;4.30;3.50;;;22.20;76.40;;;22.59;nan;100413.28;5011109;28;21083;-65
2023/06/12 01:13:33;;;;;;;7.30;5.10;;;22.10;76.30;;;22.56;nan;100414.44;5009373;28;20660;-66
2023/06/12 01:16:00;;;;;;;4.60;4.17;;;22.00;76.80;;;22.51;nan;100419.50;5027854;28;21273;-65
2023/06/12 01:18:29;;;;;;;4.70;4.20;;;22.00;77.30;;;22.42;nan;100416.16;5009829;28;20664;-66
2023/06/12 01:20:58;;;;;;;8.83;5.33;;;;;;;22.35;nan;100414.47;5000258;28;20668;-65
2023/06/12 01:24:31;;;;;;;6.10;4.70;;;21.80;76.90;;;22.36;nan;100411.63;4996811;28;20688;-64
2023/06/12 01:27:47;;;;;;;5.17;3.73;;;21.80;77.40;;;22.31;nan;100418.53;5001753;28;20629;-64
2023/06/12 01:30:54;;;;;;;6.60;4.10;;;21.80;77.60;;;22.22;nan;100419.69;5013469;28;20661;-64
2023/06/12 01:33:32;;;;;;;4.20;3.23;;;21.70;77.50;;;22.14;nan;100422.47;5005636;28;20666;-64
2023/06/12 01:36:00;;;;;;;5.47;3.70;;;21.60;77.70;;;22.00;nan;100423.34;5009555;28;20664;-65
2023/06/12 01:38:31;;;;;;;5.23;3.33;;;21.50;78.00;;;21.90;nan;100412.19;5005278;28;20615;-64
2023/06/12 01:40:59;;;;;;;6.57;3.33;;;21.40;78.20;;;21.84;nan;100418.25;5009572;28;20681;-67
2023/06/12 01:43:26;;;;;;;4.40;3.50;;;21.30;77.80;;;21.75;nan;100419.34;5002571;28;20642;-64
2023/06/12 01:45:53;;;;;;;5.40;3.90;;;21.20;78.40;;;21.79;nan;100423.28;5019637;28;20644;-64
2023/06/12 01:48:20;;;;;;;3.47;3.13;;;21.20;78.40;;;21.79;nan;100420.63;5024044;28;20644;-65
2023/06/12 01:50:48;;;;;;;5.40;3.53;;;21.30;77.40;;;21.75;nan;100419.34;5010651;28;20735;-65
2023/06/12 01:53:15;;;;;;;4.83;3.63;;;21.20;77.10;;;21.76;nan;100421.00;5009134;28;20661;-64
2023/06/12 01:55:44;;;;;;;6.50;3.60;;;21.20;76.90;;;21.70;nan;100419.91;5006007;28;20634;-64
2023/06/12 01:58:11;;;;;;;4.67;3.90;;;21.10;76.60;;;21.69;nan;100412.13;5007348;28;20625;-63
2023/06/12 02:00:38;;;;;;;6.33;3.87;;;21.10;76.70;;;21.67;nan;100425.59;5007236;28;20654;-64
2023/06/12 02:03:06;;;;;;;4.47;3.90;;;21.10;76.60;;;21.58;nan;100427.53;5010635;28;21201;-64
2023/06/12 02:05:33;;;;;;;4.20;3.67;;;21.00;76.60;;;21.49;nan;100419.84;5015324;28;20645;-64
2023/06/12 02:08:00;;;;;;;5.30;4.10;;;20.90;76.60;;;21.48;nan;100420.88;5003202;28;21216;-62
2023/06/12 02:10:27;;;;;;;9.20;3.80;;;21.00;77.20;;;21.59;nan;100417.75;5024686;28;20666;-64
2023/06/12 02:12:54;;;;;;;5.37;3.50;;;21.00;77.20;;;21.62;nan;100422.69;5007086;28;21454;-65
2023/06/12 02:15:21;;;;;;;3.90;3.47;;;21.00;76.80;;;21.59;nan;100423.06;5010995;28;20636;-64
2023/06/12 02:17:50;;;;;;;4.60;3.57;;;21.10;76.80;;;21.53;nan;100421.97;5014739;28;21029;-64
2023/06/12 02:20:18;;;;;;;3.43;3.13;;;21.00;76.70;;;21.49;nan;100427.81;5019914;28;20649;-64
2023/06/12 02:22:45;;;;;;;3.33;3.03;;;21.00;77.00;;;21.38;nan;100428.31;5012551;28;20634;-64
2023/06/12 02:25:12;;;;;;;4.63;3.70;;;20.80;77.00;;;21.27;nan;100434.91;5018324;28;21410;-64
2023/06/12 02:27:39;;;;;;;3.73;3.40;;;20.80;77.50;;;21.23;nan;100427.50;5030520;28;20624;-65
2023/06/12 02:30:07;;;;;;;3.73;3.27;;;20.70;77.60;;;21.15;nan;100425.75;5030983;28;20656;-65
2023/06/12 02:32:35;;;;;;;4.07;3.07;;;20.60;78.00;;;21.15;nan;100433.72;5032974;28;20620;-64
2023/06/12 02:35:02;;;;;;;3.63;3.30;;;20.60;78.00;;;21.06;nan;100424.19;5012567;28;20696;-64
2023/06/12 02:37:31;;;;;;;4.13;3.77;;;20.60;78.40;;;21.06;nan;100429.50;5016886;28;20617;-65
2023/06/12 02:39:58;;;;;;;4.00;3.60;;;20.60;78.70;;;21.08;nan;100424.84;4996899;28;20674;-63
2023/06/12 02:42:25;;;;;;;3.77;3.37;;;20.50;78.90;;;21.09;nan;100423.84;5004020;28;20642;-65
2023/06/12 02:44:52;;;;;;;5.17;3.83;;;20.50;79.00;;;21.09;nan;100421.19;5017299;28;21109;-64
2023/06/12 02:47:19;;;;;;;4.10;3.67;;;20.50;79.20;;;21.13;nan;100425.09;5014685;28;20634;-64
2023/06/12 02:49:47;;;;;;;4.13;3.73;;;20.60;79.70;;;21.16;nan;100424.75;5009469;28;20672;-64
2023/06/12 02:52:14;;;;;;;3.97;3.57;;;20.60;79.20;;;21.16;nan;100424.75;5007648;28;20698;-65
2023/06/12 02:54:41;;;;;;;4.27;3.77;;;20.70;79.20;;;21.15;nan;100436.34;5006454;28;20669;-64
2023/06/12 02:57:08;;;;;;;4.90;3.87;;;20.70;79.50;;;21.14;nan;100434.72;5003008;28;21008;-65
2023/06/12 02:59:35;;;;;;;6.67;4.17;;;20.60;79.50;;;21.08;nan;100430.16;5002068;28;20661;-64
2023/06/12 03:02:02;;;;;;;10.70;4.37;;;20.60;79.60;;;20.97;nan;100433.22;5005148;28;20634;-63
2023/06/12 03:04:29;;;;;;;4.90;3.60;;;20.50;80.20;;;20.92;nan;100437.41;5005273;28;20649;-64
2023/06/12 03:06:56;;;;;;;5.50;4.27;;;20.40;80.30;;;20.83;nan;100434.00;5009475;28;20636;-64
2023/06/12 03:09:23;;;;;;;4.00;3.60;;;20.30;80.60;;;20.78;nan;100437.19;5009205;28;21005;-64
2023/06/12 03:11:53;;;;;;;4.93;4.20;;;20.30;80.90;;;20.76;nan;100446.38;5009876;28;20625;-65
2023/06/12 03:14:24;;;;;;;4.33;3.40;;;20.30;81.30;;;20.77;nan;100432.09;5008165;28;20681;-65
2023/06/12 03:16:51;;;;;;;5.87;3.70;;;20.30;81.50;;;20.81;nan;100446.63;5009683;28;20640;-65
2023/06/12 03:19:18;;;;;;;4.43;3.97;;;20.30;81.30;;;20.86;nan;100442.44;5008379;28;20661;-63
2023/06/12 03:21:45;;;;;;;4.57;3.70;;;20.30;81.30;;;20.92;nan;100443.53;5011069;28;20606;-64
2023/06/12 03:24:13;;;;;;;6.37;3.50;;;20.40;81.40;;;20.96;nan;100442.16;5009236;28;21165;-65
2023/06/12 03:26:41;;;;;;;7.00;3.77;;;20.40;81.50;;;21.05;nan;100442.94;4991856;28;20634;-64
2023/06/12 03:29:09;;;;;;;6.97;4.23;;;20.50;81.40;;;21.04;nan;100446.63;5025456;28;21161;-65
2023/06/12 03:31:37;;;;;;;4.63;3.70;;;20.50;81.40;;;21.02;nan;100443.28;5004101;28;20694;-65
2023/06/12 03:34:05;;;;;;;4.30;3.90;;;20.50;81.50;;;21.05;nan;100450.91;5006362;28;20653;-64
2023/06/12 03:36:37;;;;;;;4.87;3.87;;;20.50;81.80;;;21.10;nan;100459.16;5008263;28;20633;-64
2023/06/12 03:39:05;;;;;;;4.27;3.67;;;20.50;81.70;;;21.12;nan;100455.31;4989728;28;20633;-64
2023/06/12 03:41:32;;;;;;;5.13;3.27;;;20.60;81.50;;;21.08;nan;100462.00;5010909;28;20648;-64
2023/06/12 03:44:00;;;;;;;4.87;3.50;;;20.50;81.50;;;21.02;nan;100467.16;4993501;28;20641;-64
2023/06/12 03:46:32;;;;;;;5.50;4.50;;;20.50;81.70;;;20.99;nan;100457.72;5015284;28;20649;-64
2023/06/12 03:49:00;;;;;;;4.80;3.90;;;20.50;81.80;;;20.97;nan;100470.34;5008436;28;20637;-66
2023/06/12 03:51:27;;;;;;;4.80;3.77;;;20.50;82.00;;;20.98;nan;100479.94;4997661;28;20981;-65
2023/06/12 03:53:54;;;;;;;9.83;5.30;;;20.50;82.10;;;20.99;nan;100478.13;4990442;28;20699;-64
2023/06/12 03:56:21;;;;;;;6.10;4.67;;;20.50;82.30;;;21.11;nan;100482.84;4996493;28;20644;-69
2023/06/12 03:58:49;;;;;;;7.93;4.50;;;20.60;82.30;;;21.19;nan;100479.28;5015328;28;20995;-64
2023/06/12 04:01:16;;;;;;;5.67;4.37;;;20.70;82.20;;;21.30;nan;100487.59;5011996;28;20621;-64
2023/06/12 04:03:45;;;;;;;5.67;4.67;;;20.80;82.00;;;21.43;nan;100487.78;5001814;28;20648;-64
2023/06/12 04:06:12;;;;;;;6.93;4.60;;;20.90;81.90;;;21.52;nan;100491.19;5009380;28;20630;-64
2023/06/12 04:08:40;;;;;;;8.70;4.77;;;21.00;82.40;;;21.62;nan;100494.38;5011824;28;20620;-65
2023/06/12 04:11:09;;;;;;;4.83;4.30;;;21.10;83.00;;;21.78;nan;100496.00;5024784;28;20669;-65
2023/06/12 04:13:36;;;;;;;6.50;5.00;;;21.20;82.30;;;21.88;nan;100493.91;5010842;28;20730;-65
2023/06/12 04:16:03;;;;;;;5.03;4.53;;;21.30;81.80;;;22.05;nan;100508.63;5011032;28;20642;-64
2023/06/12 04:18:31;;;;;;;7.97;5.53;;;21.50;82.40;;;22.20;nan;100506.75;5006891;28;20633;-64
2023/06/12 04:21:00;;;;;;;5.20;4.70;;;21.60;81.50;;;22.34;nan;100504.03;5011983;28;20661;-64
2023/06/12 04:23:31;;;;;;;8.10;5.50;;;21.80;81.10;;;22.51;nan;100503.81;4993432;28;20635;-64
2023/06/12 04:26:04;;;;;;;6.63;5.20;;;21.90;81.00;;;22.64;nan;100503.94;5007436;28;20614;-64
2023/06/12 04:28:38;;;;;;;4.40;3.90;;;22.10;80.70;;;22.69;nan;100507.69;5001026;28;20623;-64
2023/06/12 04:31:05;;;;;;;4.80;4.30;;;22.10;80.70;;;22.73;nan;100505.44;5008373;28;20661;-64
2023/06/12 04:33:35;;;;;;;6.33;5.00;;;22.20;80.80;;;22.86;nan;100510.88;5008672;28;20637;-65
2023/06/12 04:36:03;;;;;;;5.47;4.93;;;22.30;80.80;;;22.92;nan;100507.44;5010337;28;20646;-65
2023/06/12 04:38:30;;;;;;;7.50;5.10;;;22.40;80.60;;;23.08;nan;100521.28;5006287;28;20648;-62
2023/06/12 04:40:58;;;;;;;4.37;3.80;;;22.50;80.50;;;23.14;nan;100522.38;5009869;28;20677;-65
2023/06/12 04:43:26;;;;;;;5.20;3.80;;;22.60;80.50;;;23.24;nan;100514.03;5004921;28;20639;-65
2023/06/12 04:45:53;;;;;;;3.67;3.27;;;22.70;80.20;;;23.33;nan;100513.72;5000827;28;21205;-65
2023/06/12 04:48:24;;;;;;;4.17;3.40;;;22.80;80.10;;;23.43;nan;100516.84;4998839;28;20641;-64
2023/06/12 04:50:53;;;;;;;4.30;3.90;;;22.90;79.90;;;23.57;nan;100523.06;5017733;28;20676;-64
2023/06/12 04:53:27;;;;;;;4.80;4.30;;;23.00;79.40;;;23.65;nan;100510.41;5021491;28;20613;-64
2023/06/12 04:55:56;;;;;;;3.77;3.47;;;23.10;79.20;;;23.76;nan;100515.19;5009747;28;20637;-64
2023/06/12 04:58:23;;;;;;;4.33;4.03;;;23.20;78.60;;;23.87;nan;100519.13;5012506;28;20631;-65
2023/06/12 05:00:55;;;;;;;5.50;4.53;;;23.30;78.40;;;23.92;nan;100520.16;5019683;28;20660;-65
2023/06/12 05:03:22;;;;;;;6.20;4.70;;;23.40;78.00;;;24.09;nan;100520.66;5008848;28;20617;-65
2023/06/12 05:05:53;;;;;;;6.53;4.97;;;23.60;78.00;;;24.33;nan;100516.63;5014941;28;20645;-65
2023/06/12 05:08:20;;;;;;;7.10;4.90;;;23.80;77.20;;;24.37;nan;100520.53;5021056;28;20632;-65
2023/06/12 05:10:47;;;;;;;6.93;5.00;;;23.90;76.40;;;24.51;nan;100523.00;5011310;28;20666;-65
2023/06/12 05:13:14;;;;;;;5.50;4.87;;;24.00;76.20;;;24.73;nan;100517.50;5011018;28;20645;-64
2023/06/12 05:15:42;;;;;;;7.97;4.63;;;24.20;75.80;;;24.94;nan;100514.66;5006447;28;20638;-65
2023/06/12 05:18:09;;;;;;;7.13;4.70;;;24.40;75.70;;;25.07;nan;100512.81;4993499;28;20630;-62
2023/06/12 05:20:36;;;;;;;5.63;4.50;;;24.50;75.00;;;25.26;nan;100521.81;5011101;28;21023;-65
2023/06/12 05:23:05;;;;;;;5.23;4.37;;;24.70;75.00;;;25.33;nan;100528.81;5012563;28;20637;-63
2023/06/12 05:25:32;;;;;;;5.10;4.60;;;24.80;74.60;;;25.47;nan;100524.25;5012439;28;20586;-66
2023/06/12 05:27:59;;;;;;;6.70;5.40;;;24.90;74.60;;;25.72;nan;100525.25;5017488;28;20633;-65
2023/06/12 05:30:26;;;;;;;6.53;5.30;;;25.10;74.30;;;25.95;nan;100522.88;5011259;28;20661;-64
2023/06/12 05:32:53;;;;;;;6.43;4.60;;;25.30;73.70;;;26.23;nan;100527.09;5011375;28;20638;-65
2023/06/12 05:35:20;;;;;;;6.60;5.20;;;25.60;73.10;;;26.41;nan;100529.84;4997875;28;20673;-65
2023/06/12 05:37:47;;;;;;;7.10;4.87;;;25.80;72.30;;;26.55;nan;100524.22;5016416;28;20644;-65
2023/06/12 05:40:14;;;;;;;6.30;5.20;;;26.00;71.90;;;26.66;nan;100510.13;5007705;28;20683;-65
2023/06/12 05:42:41;;;;;;;5.60;5.07;;;26.10;71.60;;;26.85;nan;100522.56;5022379;28;20639;-65
2023/06/12 05:45:09;;;;;;;5.97;5.37;;;26.20;71.20;;;27.10;nan;100521.75;5017479;28;20640;-66
2023/06/12 05:47:36;;;;;;;5.80;4.93;;;26.50;70.70;;;27.23;nan;100521.63;5010154;28;20682;-65
2023/06/12 05:50:04;;;;;;;6.23;4.97;;;26.60;70.40;;;27.38;nan;100520.25;5004951;28;20662;-68
2023/06/12 05:52:31;;;;;;;5.37;4.60;;;26.80;70.50;;;27.41;nan;100519.81;5002023;28;20695;-70
2023/06/12 05:54:58;;;;;;;4.40;4.00;;;26.80;70.30;;;27.53;nan;100523.41;5005774;28;20665;-68
2023/06/12 05:57:29;;;;;;;4.07;3.67;;;26.90;70.20;;;27.77;nan;100521.66;5006140;28;20629;-69
2023/06/12 05:59:56;;;;;;;5.33;4.60;;;27.10;69.90;;;28.03;nan;100523.22;5004291;28;20665;-68
2023/06/12 06:02:23;;;;;;;5.23;4.73;;;27.40;69.60;;;28.23;nan;100518.44;5009214;28;20623;-70
2023/06/12 06:04:53;;;;;;;6.20;4.10;;;27.60;68.80;;;28.50;nan;100524.22;5004811;28;20938;-70
2023/06/12 06:07:21;;;;;;;5.10;4.43;;;27.80;68.20;;;28.72;nan;100515.44;5009972;28;21204;-70
2023/06/12 06:09:48;;;;;;;4.07;3.77;;;28.00;67.80;;;28.86;nan;100522.22;5009364;28;21224;-70
2023/06/12 06:12:15;;;;;;;5.43;4.00;;;28.20;67.00;;;29.11;nan;100520.13;5011490;28;20629;-71
2023/06/12 06:14:42;;;;;;;4.30;3.90;;;28.40;66.70;;;29.47;nan;100534.41;5004215;28;20676;-70
2023/06/12 06:17:09;;;;;;;4.40;4.10;;;28.80;66.50;;;29.76;nan;100528.91;5014632;28;20631;-68
2023/06/12 06:19:37;;;;;;;4.67;4.20;;;29.10;66.10;;;30.16;nan;100526.16;5010580;28;20665;-67
2023/06/12 06:22:04;;;;;;;4.77;3.87;;;29.40;65.00;;;30.54;nan;100528.22;5018888;28;21188;-67
2023/06/12 06:24:32;;;;;;;4.43;4.03;;;29.80;63.70;;;30.83;nan;100526.31;5002767;28;20641;-68
2023/06/12 06:26:59;;;;;;;4.73;4.23;;;30.10;63.90;;;31.29;nan;100534.03;5011917;28;20597;-67
2023/06/12 06:29:26;;;;;;;4.83;4.40;;;30.50;63.10;;;31.64;nan;100537.28;4998362;28;20668;-67
2023/06/12 06:31:53;;;;;;;5.57;4.03;;;30.90;62.80;;;32.08;nan;100535.38;4992403;28;21000;-68
2023/06/12 06:34:20;;;;;;;4.37;4.07;;;31.30;62.00;;;32.44;nan;100544.66;4995673;28;20696;-68
2023/06/12 06:36:47;;;;;;;4.30;3.93;;;31.70;61.70;;;32.83;nan;100543.44;5011972;28;20617;-69
2023/06/12 06:39:15;;;;;;;5.43;4.83;;;32.20;61.00;;;32.98;nan;100540.03;5008536;28;20661;-67
2023/06/12 06:41:42;;;;;;;4.70;4.17;;;32.40;59.30;;;33.32;nan;100536.78;5000098;28;20650;-68
2023/06/12 06:44:09;;;;;;;5.50;4.33;;;32.80;58.90;;;33.40;nan;100544.41;5005426;28;20638;-68
2023/06/12 06:46:36;;;;;;;5.20;4.70;;;32.90;58.60;;;33.75;nan;100548.41;5010700;28;20640;-66
2023/06/12 06:49:03;;;;;;;5.50;5.00;;;33.10;58.10;;;34.23;nan;100546.16;5010424;28;20640;-67
2023/06/12 06:51:31;;;;;;;5.17;4.67;;;33.60;57.40;;;34.31;nan;100558.34;5014853;28;20632;-68
2023/06/12 06:53:59;;;;;;;4.87;4.47;;;33.80;56.50;;;34.79;nan;100559.78;5014777;28;20641;-68
2023/06/12 06:56:26;;;;;;;4.97;3.77;;;34.20;55.70;;;35.13;nan;100563.59;5009553;28;20661;-68
2023/06/12 06:58:53;;;;;;;5.20;4.17;;;34.60;55.20;;;35.52;nan;100556.47;5015839;28;21017;-67
2023/06/12 07:01:21;;;;;;;3.57;3.33;;;35.00;55.00;;;35.85;nan;100566.69;4999112;28;20642;-68
2023/06/12 07:03:48;;;;;;;5.57;4.93;;;35.40;54.30;;;35.91;nan;100563.94;4991928;28;20610;-68
2023/06/12 07:06:15;;;;;;;4.87;4.47;;;35.50;54.00;;;35.97;nan;100560.94;5008228;28;20636;-67
2023/06/12 07:08:42;;;;;;;5.13;4.40;;;35.60;53.60;;;36.26;nan;100564.59;5008927;28;20916;-67
2023/06/12 07:11:09;;;;;;;5.47;4.90;;;35.80;53.10;;;36.91;nan;100565.28;5005780;28;20676;-68
2023/06/12 07:13:37;;;;;;;5.93;5.43;;;36.30;52.80;;;37.08;nan;100558.28;5001965;28;21036;-68
2023/06/12 07:16:04;;;;;;;3.93;3.60;;;36.50;52.40;;;37.40;nan;100567.81;5007315;28;20657;-68
2023/06/12 07:18:31;;;;;;;4.77;4.27;;;36.80;51.90;;;37.61;nan;100566.50;5007399;28;20674;-68
2023/06/12 07:20:58;;;;;;;5.17;4.77;;;37.00;50.80;;;37.93;nan;100559.28;5025768;28;20664;-68
2023/06/12 07:23:25;;;;;;;5.27;4.70;;;37.30;50.90;;;37.85;nan;100556.41;5008321;28;20636;-69
2023/06/12 07:25:52;;;;;;;5.57;5.07;;;37.50;51.10;;;38.12;nan;100551.16;5018326;28;20631;-68
2023/06/12 07:28:19;;;;;;;5.20;4.90;;;37.60;51.20;;;38.04;nan;100554.50;5013411;28;20651;-68
2023/06/12 07:30:46;;;;;;;4.77;4.47;;;37.60;50.60;;;38.22;nan;100561.88;5001926;28;20684;-70
2023/06/12 07:33:14;;;;;;;5.13;4.73;;;37.70;50.60;;;38.16;nan;100559.53;5015146;28;20626;-68
2023/06/12 07:35:41;;;;;;;5.67;5.20;;;37.70;50.30;;;38.11;nan;100552.25;5016858;28;20683;-68
2023/06/12 07:38:09;;;;;;;4.63;4.33;;;37.60;50.30;;;37.88;nan;100545.75;5018741;28;20620;-66
2023/06/12 07:40:35;;;;;;;5.20;4.80;;;37.30;50.60;;;37.97;nan;100546.69;5019181;28;20665;-68
2023/06/12 07:43:02;;;;;;;5.07;4.70;;;37.40;50.70;;;38.13;nan;100558.19;5021929;28;20692;-68
2023/06/12 07:45:31;;;;;;;4.27;3.97;;;37.50;50.20;;;37.45;nan;100546.78;5025051;28;20651;-68
2023/06/12 07:47:58;;;;;;;4.60;4.20;;;37.10;50.30;;;37.41;nan;100540.31;5023561;28;21238;-69
2023/06/12 07:50:25;;;;;;;4.47;4.17;;;36.90;51.00;;;36.69;nan;100543.94;5016403;28;20656;-69
2023/06/12 07:52:52;;;;;;;5.80;5.30;;;36.30;50.90;;;36.61;nan;100539.09;5002588;28;20630;-68
2023/06/12 07:55:20;;;;;;;5.40;5.00;;;36.10;50.90;;;36.62;nan;100546.16;5014643;28;20691;-67
2023/06/12 07:57:47;;;;;;;4.97;4.57;;;36.00;50.80;;;36.31;nan;100544.75;5013806;28;20660;-68
2023/06/12 08:00:15;;;;;;;4.30;4.00;;;35.80;51.20;;;36.35;nan;100543.91;5027386;28;20662;-67
2023/06/12 08:02:42;;;;;;;6.27;5.23;;;35.70;51.40;;;36.16;nan;100540.19;4997036;28;20614;-68
2023/06/12 08:05:11;;;;;;;6.70;5.13;;;35.60;51.20;;;35.56;nan;100537.75;5015323;28;20700;-68
2023/06/12 08:07:38;;;;;;;5.90;5.50;;;35.10;51.90;;;35.31;nan;100532.38;4997474;28;20724;-67
2023/06/12 08:10:07;;;;;;;8.20;5.33;;;34.80;52.00;;;35.13;nan;100544.63;4997464;28;21262;-68
2023/06/12 08:12:34;;;;;;;6.00;5.50;;;34.60;52.80;;;34.58;nan;100522.94;5007687;28;20659;-67
2023/06/12 08:15:02;;;;;;;5.77;5.27;;;34.10;53.10;;;34.47;nan;100526.69;5006798;28;20665;-68
2023/06/12 08:17:29;;;;;;;7.50;5.70;;;33.90;53.80;;;34.18;nan;100523.66;5010321;28;20629;-69
2023/06/12 08:19:57;;;;;;;5.80;5.30;;;33.70;53.90;;;33.72;nan;100519.16;5009303;28;20664;-67
2023/06/12 08:22:24;;;;;;;5.70;5.10;;;33.30;54.20;;;33.43;nan;100513.31;5008403;28;20644;-67
2023/06/12 08:24:51;;;;;;;4.90;4.50;;;33.00;55.10;;;33.04;nan;100509.28;5009082;28;20703;-67
2023/06/12 08:27:18;;;;;;;5.53;5.00;;;32.60;55.50;;;32.88;nan;100511.06;5011984;28;20645;-69
2023/06/12 08:29:45;;;;;;;6.03;4.93;;;32.40;55.80;;;32.96;nan;100505.16;5013796;28;20665;-67
2023/06/12 08:32:14;;;;;;;6.20;5.67;;;32.40;55.30;;;32.87;nan;100509.41;4993669;28;20629;-68
2023/06/12 08:34:41;;;;;;;6.17;5.67;;;32.40;55.10;;;32.53;nan;100508.88;5002012;28;20712;-70
2023/06/12 08:37:08;;;;;;;7.17;5.30;;;32.10;55.80;;;32.19;nan;100506.63;5011660;28;20621;-68
2023/06/12 08:39:35;;;;;;;6.00;5.13;;;31.70;55.80;;;32.00;nan;100495.38;5006362;28;20653;-67
2023/06/12 08:42:09;;;;;;;4.03;3.73;;;31.50;56.00;;;32.06;nan;100500.56;4993898;28;20653;-69
2023/06/12 08:44:36;;;;;;;4.17;3.77;;;31.50;55.20;;;31.66;nan;100497.38;5017400;28;20651;-68
2023/06/12 08:47:04;;;;;;;4.90;4.50;;;31.30;55.70;;;31.19;nan;100493.47;5010873;28;20633;-67
2023/06/12 08:49:31;;;;;;;5.60;4.73;;;30.80;57.80;;;31.02;nan;100498.06;5010727;28;21063;-67
2023/06/12 08:52:00;;;;;;;6.20;5.30;;;30.40;58.20;;;31.18;nan;100489.97;5010721;28;20653;-68
2023/06/12 08:54:29;;;;;;;5.10;4.73;;;30.50;58.30;;;31.20;nan;100485.13;5012737;28;20661;-67
2023/06/12 08:56:59;;;;;;;6.97;5.53;;;30.60;58.10;;;31.22;nan;100479.50;5022152;28;20652;-67
2023/06/12 08:59:26;;;;;;;5.30;4.80;;;30.50;58.20;;;31.25;nan;100492.47;5000538;28;20661;-67
2023/06/12 09:01:56;;;;;;;5.50;5.00;;;30.60;58.10;;;31.49;nan;100477.75;5010641;28;20623;-66
2023/06/12 09:04:57;;;;;;;3.43;3.13;;;30.70;58.00;;;31.95;nan;100485.31;5002719;28;20834;-68
2023/06/12 09:07:28;;;;;;;4.27;3.87;;;31.20;56.40;;;31.65;nan;100494.91;5026380;28;20621;-67
2023/06/12 09:09:55;;;;;;;3.70;3.40;;;31.20;54.30;;;31.55;nan;100490.22;5009836;28;20649;-66
2023/06/12 09:12:31;;;;;;;4.10;3.70;;;30.90;54.90;;;31.28;nan;100492.78;5011687;28;20593;-67
2023/06/12 09:15:01;;;;;;;3.87;3.57;;;30.70;54.70;;;30.93;nan;100484.22;5010654;28;20640;-67
2023/06/12 09:17:28;;;;;;;4.20;3.90;;;30.30;55.20;;;30.66;nan;100477.81;5024484;28;20629;-67
2023/06/12 09:19:56;;;;;;;4.07;3.70;;;30.00;55.90;;;30.65;nan;100476.19;5005454;28;21327;-69
2023/06/12 09:22:23;;;;;;;3.87;3.30;;;29.90;55.80;;;30.54;nan;100480.59;5017046;28;20625;-67
2023/06/12 09:24:51;;;;;;;1.17;1.07;;;29.90;56.30;;;30.45;nan;100476.66;4995286;28;20728;-67
2023/06/12 09:27:24;;;;;;;4.30;3.90;;;29.80;57.10;;;30.35;nan;100476.50;4996673;28;20646;-67
2023/06/12 09:29:59;;;;;;;3.97;3.50;;;29.70;55.30;;;30.27;nan;100484.94;5022836;28;20657;-67
2023/06/12 09:32:29;;;;;;;4.80;4.30;;;29.60;54.00;;;30.40;nan;100476.59;5014576;28;20664;-66
2023/06/12 09:34:56;;;;;;;5.97;4.50;;;29.70;54.20;;;30.60;nan;100476.91;5008165;28;20644;-67
2023/06/12 09:37:23;;;;;;;4.30;2.50;;;29.90;53.60;;;30.53;nan;100480.84;5009916;28;20982;-67
2023/06/12 09:39:51;;;;;;;4.93;4.53;;;29.90;53.40;;;29.99;nan;100476.88;5008448;28;20714;-67
2023/06/12 09:42:21;;;;;;;4.13;3.73;;;29.50;54.40;;;29.81;nan;100479.78;5019296;28;20646;-67
2023/06/12 09:44:48;;;;;;;3.20;2.90;;;29.30;54.60;;;29.74;nan;100471.00;5011603;28;20636;-67
2023/06/12 09:47:16;;;;;;;6.47;4.37;;;29.10;55.40;;;29.96;nan;100469.31;5011294;28;20598;-68
2023/06/12 09:49:42;;;;;;;4.07;3.67;;;29.20;56.60;;;30.19;nan;100476.44;5006797;28;20661;-69
2023/06/12 09:52:10;;;;;;;3.83;3.57;;;29.40;56.10;;;30.04;nan;100466.22;5012041;28;20641;-67
2023/06/12 09:54:39;;;;;;;5.53;5.03;;;29.40;55.90;;;30.02;nan;100467.50;5004831;28;20645;-68
2023/06/12 09:57:08;;;;;;;5.40;4.53;;;29.30;56.50;;;29.90;nan;100464.88;5035081;28;20651;-68
2023/06/12 09:59:36;;;;;;;3.60;3.30;;;29.20;56.60;;;29.72;nan;100454.28;4992446;28;20658;-67
2023/06/12 10:02:15;;;;;;;7.73;4.73;;;29.10;56.20;;;29.69;nan;100460.13;4992442;28;20638;-67
2023/06/12 10:04:59;;;;;;;4.50;4.20;;;29.00;56.80;;;29.77;nan;100465.19;5008673;28;20613;-68
2023/06/12 10:07:29;;;;;;;5.60;4.60;;;29.00;56.20;;;29.87;nan;100468.88;5024918;28;21552;-67
2023/06/12 10:09:56;;;;;;;4.30;3.57;;;29.10;56.30;;;29.91;nan;100466.50;5029248;28;20669;-68
2023/06/12 10:12:25;;;;;;;5.93;4.17;;;29.20;56.50;;;29.95;nan;100467.66;5015990;28;20634;-67
2023/06/12 10:14:52;;;;;;;4.53;4.23;;;29.30;56.30;;;30.16;nan;100466.97;5010237;28;20653;-69
2023/06/12 10:17:22;;;;;;;4.50;4.20;;;29.40;56.20;;;30.25;nan;100449.38;4998814;28;20670;-68
2023/06/12 10:19:51;;;;;;;4.43;4.03;;;29.50;55.20;;;30.19;nan;100463.81;5002044;28;20669;-67
2023/06/12 10:22:18;;;;;;;3.10;1.90;;;29.50;55.00;;;29.78;nan;100462.22;5006628;28;20632;-67
2023/06/12 10:24:47;;;;;;;3.73;3.43;;;29.30;53.80;;;29.69;nan;100455.56;5000129;28;21193;-67
2023/06/12 10:27:15;;;;;;;5.30;4.83;;;29.10;54.00;;;29.60;nan;100442.75;5011687;28;20633;-67
2023/06/12 10:29:42;;;;;;;5.37;4.77;;;29.00;54.70;;;29.63;nan;100456.53;5036514;28;20679;-71
2023/06/12 10:32:14;;;;;;;4.00;3.57;;;28.90;53.90;;;29.40;nan;100453.91;5016084;28;20692;-69